sensor_id;sensor_type;location;lat;lon;timestamp;pressure;altitude;pressure_sealevel;temperature;humidity
50684;BME280;36654;45.042;38.994;2023-05-02T00:01:06;101575.03;;;11.30;81.16
50684;BME280;36654;45.042;38.994;2023-05-02T00:03:34;101584.84;;;11.33;81.51
50684;BME280;36654;45.042;38.994;2023-05-02T00:06:01;101596.38;;;11.33;81.88
50684;BME280;36654;45.042;38.994;2023-05-02T00:08:27;101582.00;;;11.25;82.11
50684;BME280;36654;45.042;38.994;2023-05-02T00:10:53;101582.88;;;11.24;82.28
50684;BME280;36654;45.042;38.994;2023-05-02T00:13:20;101587.31;;;11.25;82.46
50684;BME280;36654;45.042;38.994;2023-05-02T00:15:46;101594.34;;;11.21;82.97
50684;BME280;36654;45.042;38.994;2023-05-02T00:18:12;101590.69;;;11.18;83.09
50684;BME280;36654;45.042;38.994;2023-05-02T00:20:39;101594.22;;;11.17;83.00
50684;BME280;36654;45.042;38.994;2023-05-02T00:23:06;101583.56;;;11.14;83.19
50684;BME280;36654;45.042;38.994;2023-05-02T00:25:31;101592.44;;;11.16;83.42
50684;BME280;36654;45.042;38.994;2023-05-02T00:27:57;101589.81;;;11.16;83.42
50684;BME280;36654;45.042;38.994;2023-05-02T00:30:23;101587.97;;;11.15;83.36
50684;BME280;36654;45.042;38.994;2023-05-02T00:32:48;101581.84;;;11.16;83.24
50684;BME280;36654;45.042;38.994;2023-05-02T00:35:14;101585.34;;;11.15;83.41
50684;BME280;36654;45.042;38.994;2023-05-02T00:37:40;101581.84;;;11.16;83.15
50684;BME280;36654;45.042;38.994;2023-05-02T00:40:06;101585.28;;;11.12;83.04
50684;BME280;36654;45.042;38.994;2023-05-02T00:42:32;101578.03;;;11.05;83.02
50684;BME280;36654;45.042;38.994;2023-05-02T00:45:01;101589.66;;;11.10;83.20
50684;BME280;36654;45.042;38.994;2023-05-02T00:47:28;101586.16;;;11.11;83.15
50684;BME280;36654;45.042;38.994;2023-05-02T00:49:53;101599.41;;;11.11;83.05
50684;BME280;36654;45.042;38.994;2023-05-02T00:52:20;101594.09;;;11.11;83.16
50684;BME280;36654;45.042;38.994;2023-05-02T00:54:46;101560.13;;;10.94;83.17
50684;BME280;36654;45.042;38.994;2023-05-02T00:57:12;101594.13;;;11.12;83.15
50684;BME280;36654;45.042;38.994;2023-05-02T00:59:38;101595.88;;;11.12;83.19
50684;BME280;36654;45.042;38.994;2023-05-02T01:05:18;101594.16;;;11.14;83.30
50684;BME280;36654;45.042;38.994;2023-05-02T01:07:59;101589.75;;;11.14;83.26
50684;BME280;36654;45.042;38.994;2023-05-02T01:13:12;101552.97;;;10.92;83.38
50684;BME280;36654;45.042;38.994;2023-05-02T01:15:47;101590.69;;;11.16;83.38
50684;BME280;36654;45.042;38.994;2023-05-02T01:18:20;101597.00;;;11.21;83.50
50684;BME280;36654;45.042;38.994;2023-05-02T01:20:52;101583.69;;;11.20;83.19
50684;BME280;36654;45.042;38.994;2023-05-02T01:29:07;101596.94;;;11.20;83.24
50684;BME280;36654;45.042;38.994;2023-05-02T01:31:40;101587.16;;;11.16;83.45
50684;BME280;36654;45.042;38.994;2023-05-02T01:34:08;101580.97;;;11.17;83.66
50684;BME280;36654;45.042;38.994;2023-05-02T01:36:42;101591.56;;;11.17;83.70
50684;BME280;36654;45.042;38.994;2023-05-02T01:39:17;101599.53;;;11.17;83.55
50684;BME280;36654;45.042;38.994;2023-05-02T01:41:44;101598.59;;;11.15;83.61
50684;BME280;36654;45.042;38.994;2023-05-02T01:44:12;101579.03;;;11.10;83.50
50684;BME280;36654;45.042;38.994;2023-05-02T01:46:40;101589.75;;;11.14;83.62
50684;BME280;36654;45.042;38.994;2023-05-02T01:49:13;101583.56;;;11.14;83.82
50684;BME280;36654;45.042;38.994;2023-05-02T01:51:46;101581.63;;;11.07;83.69
50684;BME280;36654;45.042;38.994;2023-05-02T01:54:15;101584.34;;;11.10;83.89
50684;BME280;36654;45.042;38.994;2023-05-02T01:56:41;101590.53;;;11.09;83.81
50684;BME280;36654;45.042;38.994;2023-05-02T01:59:11;101594.94;;;11.10;83.98
50684;BME280;36654;45.042;38.994;2023-05-02T02:01:39;101603.84;;;11.12;84.12
50684;BME280;36654;45.042;38.994;2023-05-02T02:04:08;101567.28;;;10.98;84.04
50684;BME280;36654;45.042;38.994;2023-05-02T02:06:35;101604.75;;;11.12;84.09
50684;BME280;36654;45.042;38.994;2023-05-02T02:09:02;101603.84;;;11.12;84.14
50684;BME280;36654;45.042;38.994;2023-05-02T02:11:43;101587.06;;;11.13;84.12
50684;BME280;36654;45.042;38.994;2023-05-02T02:14:33;101587.88;;;11.09;84.12
50684;BME280;36654;45.042;38.994;2023-05-02T02:17:01;101596.72;;;11.09;83.95
50684;BME280;36654;45.042;38.994;2023-05-02T02:19:29;101597.59;;;11.10;83.84
50684;BME280;36654;45.042;38.994;2023-05-02T02:21:57;101549.34;;;10.88;83.86
50684;BME280;36654;45.042;38.994;2023-05-02T02:24:23;101548.44;;;10.86;84.02
50684;BME280;36654;45.042;38.994;2023-05-02T02:26:50;101603.91;;;11.13;83.86
50684;BME280;36654;45.042;38.994;2023-05-02T02:29:16;101598.50;;;11.10;83.62
50684;BME280;36654;45.042;38.994;2023-05-02T02:31:42;101588.59;;;11.01;83.62
50684;BME280;36654;45.042;38.994;2023-05-02T02:34:07;101601.88;;;11.03;83.37
50684;BME280;36654;45.042;38.994;2023-05-02T02:36:44;101607.25;;;11.06;83.27
50684;BME280;36654;45.042;38.994;2023-05-02T02:42:05;101615.13;;;11.01;82.49
50684;BME280;36654;45.042;38.994;2023-05-02T02:44:46;101608.91;;;11.01;82.29
50684;BME280;36654;45.042;38.994;2023-05-02T02:50:22;101617.59;;;10.95;82.05
50684;BME280;36654;45.042;38.994;2023-05-02T02:52:59;101615.81;;;10.94;82.28
50684;BME280;36654;45.042;38.994;2023-05-02T02:55:37;101620.25;;;10.95;82.41
50684;BME280;36654;45.042;38.994;2023-05-02T02:58:14;101617.59;;;10.94;82.23
50684;BME280;36654;45.042;38.994;2023-05-02T03:00:45;101629.31;;;11.04;82.15
50684;BME280;36654;45.042;38.994;2023-05-02T03:03:13;101608.00;;;11.00;81.96
50684;BME280;36654;45.042;38.994;2023-05-02T03:05:41;101615.13;;;11.01;81.88
50684;BME280;36654;45.042;38.994;2023-05-02T03:08:07;101634.69;;;11.07;81.69
50684;BME280;36654;45.042;38.994;2023-05-02T03:10:32;101632.97;;;11.09;81.58
50684;BME280;36654;45.042;38.994;2023-05-02T03:12:58;101633.91;;;11.11;81.55
50684;BME280;36654;45.042;38.994;2023-05-02T03:15:29;101627.84;;;11.18;81.33
50684;BME280;36654;45.042;38.994;2023-05-02T03:18:03;101639.47;;;11.21;81.19
50684;BME280;36654;45.042;38.994;2023-05-02T03:20:28;101636.91;;;11.26;81.14
50684;BME280;36654;45.042;38.994;2023-05-02T03:22:54;101586.88;;;11.04;80.86
50684;BME280;36654;45.042;38.994;2023-05-02T03:25:19;101637.94;;;11.33;80.71
50684;BME280;36654;45.042;38.994;2023-05-02T03:27:45;101561.88;;;10.95;80.39
50684;BME280;36654;45.042;38.994;2023-05-02T03:30:10;101627.31;;;11.33;80.01
50684;BME280;36654;45.042;38.994;2023-05-02T03:32:36;101638.97;;;11.39;79.92
50684;BME280;36654;45.042;38.994;2023-05-02T03:35:02;101640.91;;;11.47;79.42
50684;BME280;36654;45.042;38.994;2023-05-02T03:37:28;101656.13;;;11.55;79.11
50684;BME280;36654;45.042;38.994;2023-05-02T03:39:53;101648.31;;;11.63;78.96
50684;BME280;36654;45.042;38.994;2023-05-02T03:42:20;101655.44;;;11.64;78.80
50684;BME280;36654;45.042;38.994;2023-05-02T03:44:46;101659.16;;;11.72;78.14
50684;BME280;36654;45.042;38.994;2023-05-02T03:47:11;101659.22;;;11.75;77.72
50684;BME280;36654;45.042;38.994;2023-05-02T03:49:39;101656.56;;;11.75;77.31
50684;BME280;36654;45.042;38.994;2023-05-02T03:52:04;101648.56;;;11.75;77.11
50684;BME280;36654;45.042;38.994;2023-05-02T03:54:33;101654.88;;;11.80;77.13
50684;BME280;36654;45.042;38.994;2023-05-02T03:56:58;101659.28;;;11.78;76.89
50684;BME280;36654;45.042;38.994;2023-05-02T03:59:24;101658.72;;;11.92;76.68
50684;BME280;36654;45.042;38.994;2023-05-02T04:01:50;101658.06;;;12.05;76.61
50684;BME280;36654;45.042;38.994;2023-05-02T04:04:15;101660.88;;;12.11;75.93
50684;BME280;36654;45.042;38.994;2023-05-02T04:06:41;101676.19;;;12.24;75.17
50684;BME280;36654;45.042;38.994;2023-05-02T04:09:07;101656.78;;;12.28;74.78
50684;BME280;36654;45.042;38.994;2023-05-02T04:11:32;101667.50;;;12.35;73.84
50684;BME280;36654;45.042;38.994;2023-05-02T04:13:58;101667.81;;;12.51;73.92
50684;BME280;36654;45.042;38.994;2023-05-02T04:16:24;101664.41;;;12.60;73.50
50684;BME280;36654;45.042;38.994;2023-05-02T04:18:50;101666.44;;;12.73;72.82
50684;BME280;36654;45.042;38.994;2023-05-02T04:21:15;101621.00;;;12.61;72.32
50684;BME280;36654;45.042;38.994;2023-05-02T04:23:41;101675.84;;;13.06;71.89
50684;BME280;36654;45.042;38.994;2023-05-02T04:26:06;101683.25;;;13.26;71.67
50684;BME280;36654;45.042;38.994;2023-05-02T04:28:34;101680.09;;;13.51;71.12
50684;BME280;36654;45.042;38.994;2023-05-02T04:31:00;101690.16;;;13.71;70.03
50684;BME280;36654;45.042;38.994;2023-05-02T04:33:27;101685.09;;;13.91;69.85
50684;BME280;36654;45.042;38.994;2023-05-02T04:35:53;101691.19;;;14.55;69.42
50684;BME280;36654;45.042;38.994;2023-05-02T04:38:18;101692.66;;;15.29;66.98
50684;BME280;36654;45.042;38.994;2023-05-02T04:40:44;101692.19;;;16.00;62.99
50684;BME280;36654;45.042;38.994;2023-05-02T04:43:10;101694.97;;;16.23;60.64
50684;BME280;36654;45.042;38.994;2023-05-02T04:45:35;101697.59;;;16.12;60.13
50684;BME280;36654;45.042;38.994;2023-05-02T04:48:02;101668.09;;;15.83;59.67
50684;BME280;36654;45.042;38.994;2023-05-02T04:50:28;101701.22;;;16.26;59.72
50684;BME280;36654;45.042;38.994;2023-05-02T04:52:54;101699.59;;;16.88;58.63
50684;BME280;36654;45.042;38.994;2023-05-02T04:55:19;101700.38;;;17.70;56.34
50684;BME280;36654;45.042;38.994;2023-05-02T04:57:45;101693.25;;;17.63;53.80
50684;BME280;36654;45.042;38.994;2023-05-02T05:00:11;101696.00;;;17.31;53.96
50684;BME280;36654;45.042;38.994;2023-05-02T05:02:37;101705.84;;;17.15;55.29
50684;BME280;36654;45.042;38.994;2023-05-02T05:05:04;101698.66;;;16.92;55.79
50684;BME280;36654;45.042;38.994;2023-05-02T05:07:30;101704.03;;;17.01;56.12
50684;BME280;36654;45.042;38.994;2023-05-02T05:09:55;101710.28;;;17.40;55.72
50684;BME280;36654;45.042;38.994;2023-05-02T05:12:21;101711.97;;;17.84;55.04
50684;BME280;36654;45.042;38.994;2023-05-02T05:14:47;101700.25;;;18.10;53.17
50684;BME280;36654;45.042;38.994;2023-05-02T05:17:14;101702.97;;;18.02;52.22
50684;BME280;36654;45.042;38.994;2023-05-02T05:19:40;101710.22;;;17.59;52.51
50684;BME280;36654;45.042;38.994;2023-05-02T05:22:06;101710.28;;;17.11;53.59
50684;BME280;36654;45.042;38.994;2023-05-02T05:24:32;101709.31;;;16.58;55.11
50684;BME280;36654;45.042;38.994;2023-05-02T05:26:58;101716.38;;;16.23;56.64
50684;BME280;36654;45.042;38.994;2023-05-02T05:29:24;101718.09;;;16.05;57.74
50684;BME280;36654;45.042;38.994;2023-05-02T05:31:49;101720.59;;;15.73;57.81
50684;BME280;36654;45.042;38.994;2023-05-02T05:34:15;101724.88;;;15.51;58.77
50684;BME280;36654;45.042;38.994;2023-05-02T05:36:41;101718.53;;;15.34;59.51
50684;BME280;36654;45.042;38.994;2023-05-02T05:39:07;101726.44;;;15.18;59.74
50684;BME280;36654;45.042;38.994;2023-05-02T05:41:33;101726.47;;;15.21;60.78
50684;BME280;36654;45.042;38.994;2023-05-02T05:43:59;101718.47;;;15.23;61.13
50684;BME280;36654;45.042;38.994;2023-05-02T05:46:25;101706.78;;;15.08;61.22
50684;BME280;36654;45.042;38.994;2023-05-02T05:48:51;101729.00;;;15.03;60.84
50684;BME280;36654;45.042;38.994;2023-05-02T05:51:16;101733.41;;;14.98;61.53
50684;BME280;36654;45.042;38.994;2023-05-02T05:53:42;101731.63;;;14.98;61.52
50684;BME280;36654;45.042;38.994;2023-05-02T05:56:11;101737.00;;;15.03;61.77
50684;BME280;36654;45.042;38.994;2023-05-02T05:58:38;101716.41;;;14.88;61.69
50684;BME280;36654;45.042;38.994;2023-05-02T06:01:04;101733.34;;;14.95;61.74
50684;BME280;36654;45.042;38.994;2023-05-02T06:03:30;101728.84;;;14.86;62.20
50684;BME280;36654;45.042;38.994;2023-05-02T06:05:56;101739.56;;;14.91;62.72
50684;BME280;36654;45.042;38.994;2023-05-02T06:08:22;101736.88;;;14.91;62.65
50684;BME280;36654;45.042;38.994;2023-05-02T06:10:47;101731.44;;;14.78;62.88
50684;BME280;36654;45.042;38.994;2023-05-02T06:13:13;101744.81;;;14.83;62.71
50684;BME280;36654;45.042;38.994;2023-05-02T06:15:38;101744.75;;;14.77;62.41
50684;BME280;36654;45.042;38.994;2023-05-02T06:18:04;101747.50;;;14.86;62.89
50684;BME280;36654;45.042;38.994;2023-05-02T06:20:30;101750.28;;;14.97;62.93
50684;BME280;36654;45.042;38.994;2023-05-02T06:22:55;101762.00;;;15.14;62.91
50684;BME280;36654;45.042;38.994;2023-05-02T06:25:21;101745.22;;;15.29;61.59
50684;BME280;36654;45.042;38.994;2023-05-02T06:27:46;101701.50;;;15.19;61.39
50684;BME280;36654;45.042;38.994;2023-05-02T06:30:12;101739.94;;;15.35;60.84
50684;BME280;36654;45.042;38.994;2023-05-02T06:32:38;101736.31;;;15.31;60.68
50684;BME280;36654;45.042;38.994;2023-05-02T06:35:04;101751.53;;;15.42;60.33
50684;BME280;36654;45.042;38.994;2023-05-02T06:37:33;101710.44;;;15.24;60.18
50684;BME280;36654;45.042;38.994;2023-05-02T06:40:02;101755.13;;;15.47;60.24
50684;BME280;36654;45.042;38.994;2023-05-02T06:42:27;101745.34;;;15.47;59.66
50684;BME280;36654;45.042;38.994;2023-05-02T06:44:54;101755.25;;;15.62;59.51
50684;BME280;36654;45.042;38.994;2023-05-02T06:47:20;101755.34;;;15.71;59.71
50684;BME280;36654;45.042;38.994;2023-05-02T06:49:46;101755.34;;;15.74;59.72
50684;BME280;36654;45.042;38.994;2023-05-02T06:52:11;101744.72;;;15.84;59.77
50684;BME280;36654;45.042;38.994;2023-05-02T06:54:37;101764.28;;;15.73;59.35
50684;BME280;36654;45.042;38.994;2023-05-02T06:57:03;101725.72;;;15.44;60.38
50684;BME280;36654;45.042;38.994;2023-05-02T06:59:29;101754.28;;;15.51;60.56
50684;BME280;36654;45.042;38.994;2023-05-02T07:01:55;101761.34;;;15.41;60.76
50684;BME280;36654;45.042;38.994;2023-05-02T07:04:21;101763.03;;;15.31;60.93
50684;BME280;36654;45.042;38.994;2023-05-02T07:06:46;101763.81;;;15.15;61.23
50684;BME280;36654;45.042;38.994;2023-05-02T07:09:12;101770.00;;;15.11;61.37
50684;BME280;36654;45.042;38.994;2023-05-02T07:11:37;101764.56;;;15.00;61.60
50684;BME280;36654;45.042;38.994;2023-05-02T07:14:03;101770.81;;;15.04;62.07
50684;BME280;36654;45.042;38.994;2023-05-02T07:16:29;101763.66;;;14.98;62.39
50684;BME280;36654;45.042;38.994;2023-05-02T07:18:54;101709.88;;;14.60;62.50
50684;BME280;36654;45.042;38.994;2023-05-02T07:21:20;101752.81;;;14.81;62.68
50684;BME280;36654;45.042;38.994;2023-05-02T07:23:45;101751.06;;;14.83;62.35
50684;BME280;36654;45.042;38.994;2023-05-02T07:26:11;101781.53;;;15.10;62.40
50684;BME280;36654;45.042;38.994;2023-05-02T07:28:37;101786.13;;;15.23;61.57
50684;BME280;36654;45.042;38.994;2023-05-02T07:31:03;101735.28;;;15.14;60.25
50684;BME280;36654;45.042;38.994;2023-05-02T07:33:28;101775.53;;;15.37;59.88
50684;BME280;36654;45.042;38.994;2023-05-02T07:35:54;101769.34;;;15.41;59.46
50684;BME280;36654;45.042;38.994;2023-05-02T07:38:20;101774.81;;;15.58;59.36
50684;BME280;36654;45.042;38.994;2023-05-02T07:40:46;101753.47;;;15.61;58.51
50684;BME280;36654;45.042;38.994;2023-05-02T07:43:12;101782.25;;;16.02;58.21
50684;BME280;36654;45.042;38.994;2023-05-02T07:45:38;101776.97;;;16.13;57.24
50684;BME280;36654;45.042;38.994;2023-05-02T07:48:04;101770.75;;;16.25;56.80
50684;BME280;36654;45.042;38.994;2023-05-02T07:50:29;101773.47;;;16.34;56.36
50684;BME280;36654;45.042;38.994;2023-05-02T07:52:56;101779.69;;;16.30;56.54
50684;BME280;36654;45.042;38.994;2023-05-02T07:55:21;101783.25;;;16.27;56.83
50684;BME280;36654;45.042;38.994;2023-05-02T07:57:47;101765.34;;;16.08;56.33
50684;BME280;36654;45.042;38.994;2023-05-02T08:00:13;101782.31;;;16.11;56.48
50684;BME280;36654;45.042;38.994;2023-05-02T08:02:42;101773.34;;;16.00;55.70
50684;BME280;36654;45.042;38.994;2023-05-02T08:05:08;101757.22;;;15.88;56.27
50684;BME280;36654;45.042;38.994;2023-05-02T08:07:34;101767.16;;;16.10;56.14
50684;BME280;36654;45.042;38.994;2023-05-02T08:10:00;101774.38;;;16.36;55.77
50684;BME280;36654;45.042;38.994;2023-05-02T08:12:26;101761.97;;;16.50;55.49
50684;BME280;36654;45.042;38.994;2023-05-02T08:14:52;101773.56;;;16.65;55.36
50684;BME280;36654;45.042;38.994;2023-05-02T08:17:17;101763.84;;;16.90;54.08
50684;BME280;36654;45.042;38.994;2023-05-02T08:19:43;101755.84;;;16.97;54.13
50684;BME280;36654;45.042;38.994;2023-05-02T08:22:08;101750.50;;;17.05;53.92
50684;BME280;36654;45.042;38.994;2023-05-02T08:24:34;101763.00;;;17.20;52.92
50684;BME280;36654;45.042;38.994;2023-05-02T08:26:59;101724.59;;;17.02;52.06
50684;BME280;36654;45.042;38.994;2023-05-02T08:29:27;101756.72;;;17.21;51.91
50684;BME280;36654;45.042;38.994;2023-05-02T08:31:53;101758.50;;;17.10;51.78
50684;BME280;36654;45.042;38.994;2023-05-02T08:34:18;101757.63;;;17.29;51.68
50684;BME280;36654;45.042;38.994;2023-05-02T08:36:46;101745.09;;;17.43;51.20
50684;BME280;36654;45.042;38.994;2023-05-02T08:39:11;101759.41;;;17.44;51.31
50684;BME280;36654;45.042;38.994;2023-05-02T08:41:37;101755.81;;;17.27;50.15
50684;BME280;36654;45.042;38.994;2023-05-02T08:44:05;101758.50;;;17.14;50.22
50684;BME280;36654;45.042;38.994;2023-05-02T08:46:34;101762.97;;;17.17;50.63
50684;BME280;36654;45.042;38.994;2023-05-02T08:49:01;101761.19;;;17.05;50.31
50684;BME280;36654;45.042;38.994;2023-05-02T08:51:29;101762.94;;;16.92;50.65
50684;BME280;36654;45.042;38.994;2023-05-02T08:53:57;101729.84;;;16.59;51.03
50684;BME280;36654;45.042;38.994;2023-05-02T08:56:24;101760.19;;;16.58;50.51
50684;BME280;36654;45.042;38.994;2023-05-02T08:58:50;101756.63;;;16.55;50.26
50684;BME280;36654;45.042;38.994;2023-05-02T09:01:18;101755.75;;;16.64;50.59
50684;BME280;36654;45.042;38.994;2023-05-02T09:03:46;101746.00;;;16.86;50.52
50684;BME280;36654;45.042;38.994;2023-05-02T09:06:14;101739.75;;;17.03;50.51
50684;BME280;36654;45.042;38.994;2023-05-02T09:08:42;101730.81;;;17.14;50.35
50684;BME280;36654;45.042;38.994;2023-05-02T09:11:09;101746.91;;;17.26;50.17
50684;BME280;36654;45.042;38.994;2023-05-02T09:13:40;101735.31;;;17.30;49.27
50684;BME280;36654;45.042;38.994;2023-05-02T09:16:16;101712.03;;;17.32;49.84
50684;BME280;36654;45.042;38.994;2023-05-02T09:18:44;101735.28;;;17.36;49.75
50684;BME280;36654;45.042;38.994;2023-05-02T09:21:52;101731.72;;;17.23;49.87
50684;BME280;36654;45.042;38.994;2023-05-02T09:23:59;101737.09;;;17.05;49.39
50684;BME280;36654;45.042;38.994;2023-05-02T09:26:26;101737.09;;;17.00;49.27
50684;BME280;36654;45.042;38.994;2023-05-02T09:28:56;101738.84;;;16.94;49.31
50684;BME280;36654;45.042;38.994;2023-05-02T09:31:27;101737.97;;;16.93;50.21
50684;BME280;36654;45.042;38.994;2023-05-02T09:34:18;101746.88;;;16.89;50.91
50684;BME280;36654;45.042;38.994;2023-05-02T09:36:48;101739.75;;;16.85;51.59
50684;BME280;36654;45.042;38.994;2023-05-02T09:39:25;101727.25;;;16.81;50.89
50684;BME280;36654;45.042;38.994;2023-05-02T09:41:51;101731.69;;;16.82;50.90
50684;BME280;36654;45.042;38.994;2023-05-02T09:44:18;101698.63;;;16.77;52.64
50684;BME280;36654;45.042;38.994;2023-05-02T09:46:50;101737.97;;;16.99;51.11
50684;BME280;36654;45.042;38.994;2023-05-02T09:49:16;101742.44;;;17.10;52.08
50684;BME280;36654;45.042;38.994;2023-05-02T09:51:46;101750.47;;;17.03;52.46
50684;BME280;36654;45.042;38.994;2023-05-02T09:54:12;101756.72;;;16.99;53.09
50684;BME280;36654;45.042;38.994;2023-05-02T09:56:52;101734.38;;;16.94;53.00
50684;BME280;36654;45.042;38.994;2023-05-02T09:59:18;101736.19;;;17.11;52.87
50684;BME280;36654;45.042;38.994;2023-05-02T10:01:44;101749.59;;;17.06;50.08
50684;BME280;36654;45.042;38.994;2023-05-02T10:04:13;101748.69;;;16.96;48.74
50684;BME280;36654;45.042;38.994;2023-05-02T10:06:44;101746.00;;;17.01;49.18
50684;BME280;36654;45.042;38.994;2023-05-02T10:09:10;101720.13;;;16.98;48.74
50684;BME280;36654;45.042;38.994;2023-05-02T10:11:44;101743.34;;;17.15;48.53
50684;BME280;36654;45.042;38.994;2023-05-02T10:14:11;101739.75;;;17.03;48.03
50684;BME280;36654;45.042;38.994;2023-05-02T10:16:59;101743.34;;;17.02;48.02
50684;BME280;36654;45.042;38.994;2023-05-02T10:22:18;101748.69;;;17.12;48.10
50684;BME280;36654;45.042;38.994;2023-05-02T10:24:48;101731.72;;;17.19;46.73
50684;BME280;36654;45.042;38.994;2023-05-02T10:27:14;101741.56;;;17.40;46.24
50684;BME280;36654;45.042;38.994;2023-05-02T10:29:41;101735.28;;;17.55;46.48
50684;BME280;36654;45.042;38.994;2023-05-02T10:32:08;101736.13;;;17.75;45.92
50684;BME280;36654;45.042;38.994;2023-05-02T10:34:35;101738.78;;;17.86;45.19
50684;BME280;36654;45.042;38.994;2023-05-02T10:37:01;101715.53;;;17.89;44.27
50684;BME280;36654;45.042;38.994;2023-05-02T10:39:28;101736.09;;;17.84;44.22
50684;BME280;36654;45.042;38.994;2023-05-02T10:41:58;101735.19;;;17.79;45.32
50684;BME280;36654;45.042;38.994;2023-05-02T10:44:39;101751.31;;;17.73;44.99
50684;BME280;36654;45.042;38.994;2023-05-02T10:47:24;101757.59;;;17.63;45.46
50684;BME280;36654;45.042;38.994;2023-05-02T10:49:54;101757.59;;;17.49;46.58
50684;BME280;36654;45.042;38.994;2023-05-02T10:52:29;101756.72;;;17.38;47.25
50684;BME280;36654;45.042;38.994;2023-05-02T10:55:15;101757.63;;;17.35;47.55
50684;BME280;36654;45.042;38.994;2023-05-02T11:00:24;101761.19;;;17.39;47.54
50684;BME280;36654;45.042;38.994;2023-05-02T11:02:50;101757.59;;;17.44;46.90
50684;BME280;36654;45.042;38.994;2023-05-02T11:05:16;101754.94;;;17.48;46.52
50684;BME280;36654;45.042;38.994;2023-05-02T11:07:42;101769.22;;;17.39;46.49
50684;BME280;36654;45.042;38.994;2023-05-02T11:12:46;101754.94;;;17.26;46.56
50684;BME280;36654;45.042;38.994;2023-05-02T11:15:12;101759.41;;;17.21;46.92
50684;BME280;36654;45.042;38.994;2023-05-02T11:18:03;101778.16;;;17.24;46.73
50684;BME280;36654;45.042;38.994;2023-05-02T11:20:32;101779.94;;;17.14;47.93
50684;BME280;36654;45.042;38.994;2023-05-02T11:23:19;101756.72;;;16.95;48.09
50684;BME280;36654;45.042;38.994;2023-05-02T11:25:54;101783.50;;;17.04;48.26
50684;BME280;36654;45.042;38.994;2023-05-02T11:28:39;101803.13;;;16.97;48.94
50684;BME280;36654;45.042;38.994;2023-05-02T11:38:54;101786.19;;;16.93;46.44
50684;BME280;36654;45.042;38.994;2023-05-02T11:41:20;101806.72;;;17.00;46.30
50684;BME280;36654;45.042;38.994;2023-05-02T11:43:46;101804.06;;;17.03;46.23
50684;BME280;36654;45.042;38.994;2023-05-02T11:46:11;101793.34;;;16.97;45.72
50684;BME280;36654;45.042;38.994;2023-05-02T11:48:37;101818.28;;;16.84;45.84
50684;BME280;36654;45.042;38.994;2023-05-02T11:51:03;101777.16;;;16.64;46.24
50684;BME280;36654;45.042;38.994;2023-05-02T11:53:31;101825.44;;;16.94;46.94
50684;BME280;36654;45.042;38.994;2023-05-02T11:56:00;101822.78;;;17.07;48.36
50684;BME280;36654;45.042;38.994;2023-05-02T11:58:30;101825.50;;;17.16;50.52
50684;BME280;36654;45.042;38.994;2023-05-02T12:01:13;101829.97;;;17.23;51.50
50684;BME280;36654;45.042;38.994;2023-05-02T12:03:39;101830.84;;;17.30;52.68
50684;BME280;36654;45.042;38.994;2023-05-02T12:06:13;101831.78;;;17.38;53.80
50684;BME280;36654;45.042;38.994;2023-05-02T12:08:41;101830.00;;;17.28;53.60
50684;BME280;36654;45.042;38.994;2023-05-02T12:11:06;101826.38;;;17.13;53.51
50684;BME280;36654;45.042;38.994;2023-05-02T12:13:33;101842.47;;;17.10;53.60
50684;BME280;36654;45.042;38.994;2023-05-02T12:15:59;101801.34;;;16.80;53.88
50684;BME280;36654;45.042;38.994;2023-05-02T12:18:26;101828.16;;;17.03;53.61
50684;BME280;36654;45.042;38.994;2023-05-02T12:20:53;101837.09;;;17.02;53.28
50684;BME280;36654;45.042;38.994;2023-05-02T12:23:21;101812.09;;;17.03;53.21
50684;BME280;36654;45.042;38.994;2023-05-02T12:25:47;101832.63;;;17.14;51.82
50684;BME280;36654;45.042;38.994;2023-05-02T12:28:15;101830.84;;;17.16;49.58
50684;BME280;36654;45.042;38.994;2023-05-02T12:30:43;101825.47;;;17.14;49.86
50684;BME280;36654;45.042;38.994;2023-05-02T12:33:09;101832.63;;;17.11;50.02
50684;BME280;36654;45.042;38.994;2023-05-02T12:35:35;101854.06;;;17.14;50.01
50684;BME280;36654;45.042;38.994;2023-05-02T12:38:17;101845.13;;;17.09;50.92
50684;BME280;36654;45.042;38.994;2023-05-02T12:40:52;101851.41;;;17.08;50.27
50684;BME280;36654;45.042;38.994;2023-05-02T12:43:19;101854.97;;;17.05;50.96
50684;BME280;36654;45.042;38.994;2023-05-02T12:45:46;101852.22;;;16.94;50.40
50684;BME280;36654;45.042;38.994;2023-05-02T12:48:24;101851.38;;;17.03;50.10
50684;BME280;36654;45.042;38.994;2023-05-02T12:50:51;101845.13;;;17.02;50.38
50684;BME280;36654;45.042;38.994;2023-05-02T12:53:42;101850.47;;;16.99;50.86
50684;BME280;36654;45.042;38.994;2023-05-02T12:56:09;101827.22;;;16.80;50.82
50684;BME280;36654;45.042;38.994;2023-05-02T12:58:45;101864.75;;;16.97;50.29
50684;BME280;36654;45.042;38.994;2023-05-02T13:01:12;101862.97;;;17.02;49.55
50684;BME280;36654;45.042;38.994;2023-05-02T13:03:40;101864.78;;;17.08;49.98
50684;BME280;36654;45.042;38.994;2023-05-02T13:06:06;101861.22;;;17.06;50.03
50684;BME280;36654;45.042;38.994;2023-05-02T13:08:33;101870.16;;;17.15;48.86
50684;BME280;36654;45.042;38.994;2023-05-02T13:11:00;101867.50;;;17.23;48.86
50684;BME280;36654;45.042;38.994;2023-05-02T13:13:27;101865.72;;;17.31;50.01
50684;BME280;36654;45.042;38.994;2023-05-02T13:15:53;101843.34;;;17.11;49.51
50684;BME280;36654;45.042;38.994;2023-05-02T13:18:18;101827.25;;;17.04;49.25